createdAt,value
2022-12-08T00:01:13.119Z,1.20
2022-12-08T00:03:40.540Z,1.20
2022-12-08T00:06:30.181Z,1.20
2022-12-08T00:09:15.617Z,1.20
2022-12-08T00:11:42.415Z,1.20
2022-12-08T00:14:09.046Z,1.20
2022-12-08T00:16:35.726Z,1.10
2022-12-08T00:19:02.355Z,1.10
2022-12-08T00:21:29.460Z,1.10
2022-12-08T00:23:56.613Z,1.00
2022-12-08T00:26:23.271Z,1.00
2022-12-08T00:28:50.072Z,1.00
2022-12-08T00:31:16.894Z,1.00
2022-12-08T00:33:43.568Z,0.90
2022-12-08T00:36:13.020Z,0.90
2022-12-08T00:38:40.789Z,0.90
2022-12-08T00:41:12.736Z,0.90
2022-12-08T00:43:39.458Z,0.90
2022-12-08T00:46:06.289Z,0.80
2022-12-08T00:48:33.065Z,0.90
2022-12-08T00:50:59.690Z,0.80
2022-12-08T00:53:26.350Z,0.70
2022-12-08T00:55:53.007Z,0.60
2022-12-08T00:58:19.645Z,0.60
2022-12-08T01:00:46.352Z,0.50
2022-12-08T01:03:13.455Z,0.50
2022-12-08T01:05:40.185Z,0.50
2022-12-08T01:08:08.139Z,0.60
2022-12-08T01:10:36.533Z,0.60
2022-12-08T01:13:04.023Z,0.60
2022-12-08T01:15:30.920Z,0.60
2022-12-08T01:17:57.701Z,0.60
2022-12-08T01:20:24.339Z,0.60
2022-12-08T01:22:50.937Z,0.50
2022-12-08T01:25:17.840Z,0.60
2022-12-08T01:27:44.469Z,0.60
2022-12-08T01:30:11.557Z,0.50
2022-12-08T01:32:38.220Z,0.50
2022-12-08T01:35:05.076Z,0.50
2022-12-08T01:37:31.721Z,0.50
2022-12-08T01:39:58.385Z,0.50
2022-12-08T01:42:25.532Z,0.50
2022-12-08T01:44:59.204Z,0.50
2022-12-08T01:47:32.105Z,0.50
2022-12-08T01:50:00.294Z,0.50
2022-12-08T01:52:33.390Z,0.50
2022-12-08T01:55:10.887Z,0.50
2022-12-08T01:57:46.282Z,0.50
2022-12-08T02:00:15.691Z,0.50
2022-12-08T02:02:53.623Z,0.50
2022-12-08T02:05:24.423Z,0.50
2022-12-08T02:07:53.360Z,0.40
2022-12-08T02:10:22.799Z,0.40
2022-12-08T02:12:53.123Z,0.40
2022-12-08T02:15:22.939Z,0.40
2022-12-08T02:18:07.685Z,0.40
2022-12-08T02:21:13.938Z,0.40
2022-12-08T02:23:58.968Z,0.30
2022-12-08T02:26:31.475Z,0.30
2022-12-08T02:29:29.984Z,0.40
2022-12-08T02:31:56.568Z,0.30
2022-12-08T02:34:34.631Z,0.30
2022-12-08T02:37:22.509Z,0.30
2022-12-08T02:39:57.614Z,0.20
2022-12-08T02:42:37.922Z,0.20
2022-12-08T02:45:09.077Z,0.20
2022-12-08T02:47:36.106Z,0.20
2022-12-08T02:50:03.478Z,0.10
2022-12-08T02:52:30.365Z,0.10
2022-12-08T02:55:04.850Z,0.10
2022-12-08T02:58:09.800Z,0.10
2022-12-08T03:00:52.105Z,0.20
2022-12-08T03:03:35.991Z,0.20
2022-12-08T03:06:28.640Z,0.10
2022-12-08T03:09:02.459Z,0.10
2022-12-08T03:11:36.926Z,0.20
2022-12-08T03:14:07.034Z,0.20
2022-12-08T03:16:39.021Z,0.30
2022-12-08T03:19:19.920Z,0.30
2022-12-08T03:22:02.920Z,0.30
2022-12-08T03:24:43.169Z,0.40
2022-12-08T03:27:20.536Z,0.40
2022-12-08T03:29:49.334Z,0.40
2022-12-08T03:32:47.682Z,0.50
2022-12-08T03:35:19.688Z,0.50
2022-12-08T03:37:46.397Z,0.50
2022-12-08T03:40:17.416Z,0.60
2022-12-08T03:42:44.238Z,0.60
2022-12-08T03:45:11.197Z,0.70
2022-12-08T03:47:38.011Z,0.70
2022-12-08T03:50:05.540Z,0.70
2022-12-08T03:52:32.359Z,0.80
2022-12-08T03:54:58.981Z,0.80
2022-12-08T03:57:25.653Z,0.90
2022-12-08T03:59:52.258Z,0.90
2022-12-08T04:02:18.948Z,0.90
2022-12-08T04:04:45.623Z,1.00
2022-12-08T04:07:12.252Z,1.00
2022-12-08T04:09:39.021Z,1.00
2022-12-08T04:12:05.850Z,1.10
2022-12-08T04:14:32.506Z,1.10
2022-12-08T04:16:59.151Z,1.10
2022-12-08T04:19:25.807Z,1.10
2022-12-08T04:21:52.708Z,1.20
2022-12-08T04:24:19.420Z,1.20
2022-12-08T04:26:46.083Z,1.30
2022-12-08T04:29:12.716Z,1.30
2022-12-08T04:31:39.458Z,1.30
2022-12-08T04:34:06.190Z,1.30
2022-12-08T04:36:32.820Z,1.40
2022-12-08T04:39:00.024Z,1.40
2022-12-08T04:41:26.746Z,1.40
2022-12-08T04:43:53.389Z,1.50
2022-12-08T04:46:20.079Z,1.50
2022-12-08T04:48:46.737Z,1.50
2022-12-08T04:51:19.873Z,1.50
2022-12-08T04:53:47.317Z,1.50
2022-12-08T04:56:15.695Z,1.50
2022-12-08T04:58:42.542Z,1.60
2022-12-08T05:01:09.284Z,1.60
2022-12-08T05:03:36.086Z,1.60
2022-12-08T05:06:03.639Z,1.60
2022-12-08T05:08:30.880Z,1.60
2022-12-08T05:11:09.035Z,1.60
2022-12-08T05:13:35.809Z,1.50
2022-12-08T05:16:11.752Z,1.50
2022-12-08T05:18:39.771Z,1.50
2022-12-08T05:21:07.750Z,1.50
2022-12-08T05:23:34.745Z,1.40
2022-12-08T05:26:01.339Z,1.40
2022-12-08T05:28:44.045Z,1.40
2022-12-08T05:31:16.029Z,1.30
2022-12-08T05:33:43.458Z,1.30
2022-12-08T05:36:12.850Z,1.20
2022-12-08T05:38:39.802Z,1.20
2022-12-08T05:41:08.250Z,1.20
2022-12-08T05:43:35.078Z,1.20
2022-12-08T05:46:02.274Z,1.10
2022-12-08T05:48:29.034Z,1.10
2022-12-08T05:50:56.018Z,1.10
2022-12-08T05:53:23.017Z,1.10
2022-12-08T05:55:49.680Z,1.10
2022-12-08T05:58:19.120Z,1.10
2022-12-08T06:00:46.856Z,1.10
2022-12-08T06:03:15.412Z,1.10
2022-12-08T06:05:44.067Z,1.10
2022-12-08T06:08:11.218Z,1.10
2022-12-08T06:10:39.860Z,1.10
2022-12-08T06:13:06.616Z,1.10
2022-12-08T06:15:37.554Z,1.10
2022-12-08T06:18:05.531Z,1.10
2022-12-08T06:20:32.429Z,1.20
2022-12-08T06:22:59.124Z,1.20
2022-12-08T06:25:25.766Z,1.20
2022-12-08T06:27:52.555Z,1.20
2022-12-08T06:30:19.196Z,1.20
2022-12-08T06:32:45.907Z,1.20
2022-12-08T06:35:12.543Z,1.20
2022-12-08T06:37:39.222Z,1.10
2022-12-08T06:40:06.888Z,1.10
2022-12-08T06:42:46.646Z,1.10
2022-12-08T06:45:15.582Z,1.00
2022-12-08T06:47:42.600Z,1.00
2022-12-08T06:50:10.923Z,1.00
2022-12-08T06:52:47.255Z,1.00
2022-12-08T06:55:35.451Z,0.90
2022-12-08T06:58:02.942Z,0.90
2022-12-08T07:00:29.618Z,0.90
2022-12-08T07:02:56.365Z,0.90
2022-12-08T07:05:23.070Z,0.80
2022-12-08T07:07:49.769Z,0.80
2022-12-08T07:10:16.670Z,0.80
2022-12-08T07:12:43.302Z,0.80
2022-12-08T07:15:10.447Z,0.80
2022-12-08T07:17:37.102Z,0.90
2022-12-08T07:20:04.279Z,0.90
2022-12-08T07:22:31.119Z,0.90
2022-12-08T07:24:57.754Z,0.90
2022-12-08T07:27:24.380Z,0.90
2022-12-08T07:29:51.011Z,1.00
2022-12-08T07:32:17.659Z,1.00
2022-12-08T07:34:47.036Z,1.00
2022-12-08T07:37:13.951Z,1.00
2022-12-08T07:39:40.604Z,1.00
2022-12-08T07:42:07.238Z,1.00
2022-12-08T07:44:33.844Z,1.00
2022-12-08T07:47:00.470Z,1.00
2022-12-08T07:49:27.335Z,1.00
2022-12-08T07:51:54.148Z,1.00
2022-12-08T07:54:20.780Z,1.00
2022-12-08T07:56:47.412Z,1.10
2022-12-08T07:59:14.605Z,1.00
2022-12-08T08:01:45.130Z,1.10
2022-12-08T08:04:12.373Z,1.10
2022-12-08T08:06:39.117Z,1.10
2022-12-08T08:09:05.880Z,1.20
2022-12-08T08:11:32.530Z,1.20
2022-12-08T08:13:59.207Z,1.20
2022-12-08T08:16:26.015Z,1.20
2022-12-08T08:18:52.812Z,1.30
2022-12-08T08:24:07.258Z,1.30
2022-12-08T08:26:34.170Z,1.30
2022-12-08T08:29:00.843Z,1.30
2022-12-08T08:31:28.018Z,1.30
2022-12-08T08:33:56.703Z,1.30
2022-12-08T08:36:23.486Z,1.30
2022-12-08T08:38:50.568Z,1.30
2022-12-08T08:41:17.300Z,1.20
2022-12-08T08:43:43.963Z,1.30
2022-12-08T08:46:11.062Z,1.20
2022-12-08T08:48:37.969Z,1.20
2022-12-08T08:51:12.488Z,1.30
2022-12-08T08:53:39.705Z,1.30
2022-12-08T08:56:14.233Z,1.20
2022-12-08T08:58:41.650Z,1.10
2022-12-08T09:01:08.468Z,1.10
2022-12-08T09:03:35.125Z,1.20
2022-12-08T09:06:01.861Z,1.20
2022-12-08T09:08:28.678Z,1.20
2022-12-08T09:10:55.332Z,1.30
2022-12-08T09:13:22.320Z,1.30
2022-12-08T09:15:49.451Z,1.40
2022-12-08T09:18:16.225Z,1.40
2022-12-08T09:20:42.891Z,1.50
2022-12-08T09:23:09.568Z,1.60
2022-12-08T09:25:36.304Z,1.60
2022-12-08T09:28:03.100Z,1.60
2022-12-08T09:30:29.755Z,1.70
2022-12-08T09:32:56.438Z,1.80
2022-12-08T09:35:23.072Z,1.80
2022-12-08T09:37:49.725Z,1.90
2022-12-08T09:40:20.119Z,1.90
2022-12-08T09:43:05.066Z,1.90
2022-12-08T09:45:35.445Z,2.00
2022-12-08T09:48:19.065Z,2.00
2022-12-08T09:50:54.483Z,2.10
2022-12-08T09:53:22.892Z,2.10
2022-12-08T09:56:06.931Z,2.20
2022-12-08T09:58:58.078Z,2.30
2022-12-08T10:01:29.694Z,2.30
2022-12-08T10:03:57.130Z,2.30
2022-12-08T10:06:47.801Z,2.20
2022-12-08T10:09:38.738Z,2.20
2022-12-08T10:12:24.251Z,2.30
2022-12-08T10:15:19.152Z,2.30
2022-12-08T10:17:49.021Z,2.40
2022-12-08T10:20:25.142Z,2.40
2022-12-08T10:23:05.644Z,2.40
2022-12-08T10:25:41.184Z,2.40
2022-12-08T10:28:09.283Z,2.20
2022-12-08T10:30:36.186Z,2.10
2022-12-08T10:33:02.953Z,1.80
2022-12-08T10:35:48.562Z,1.70
2022-12-08T10:38:20.583Z,1.70
2022-12-08T10:40:48.331Z,1.80
2022-12-08T10:43:24.325Z,1.90
2022-12-08T10:45:52.132Z,1.90
2022-12-08T10:48:21.112Z,2.00
2022-12-08T10:50:58.051Z,2.10
2022-12-08T10:53:30.377Z,2.10
2022-12-08T10:56:02.735Z,2.20
2022-12-08T10:58:36.569Z,2.30
2022-12-08T11:01:09.700Z,2.30
2022-12-08T11:03:50.078Z,2.20
2022-12-08T11:06:30.119Z,2.20
2022-12-08T11:08:59.481Z,2.20
2022-12-08T11:11:51.446Z,2.30
2022-12-08T11:14:33.313Z,2.30
2022-12-08T11:17:09.376Z,2.30
2022-12-08T11:19:44.982Z,2.20
2022-12-08T11:22:32.130Z,2.20
2022-12-08T11:25:07.740Z,2.20
2022-12-08T11:27:36.894Z,2.40
2022-12-08T11:30:15.236Z,2.40
2022-12-08T11:32:44.815Z,2.50
2022-12-08T11:35:37.047Z,2.50
2022-12-08T11:38:21.299Z,2.60
2022-12-08T11:40:51.747Z,2.70
2022-12-08T11:43:33.403Z,2.80
2022-12-08T11:46:03.452Z,2.90
2022-12-08T11:48:37.009Z,3.00
2022-12-08T11:51:18.287Z,2.90
2022-12-08T11:54:03.531Z,3.00
2022-12-08T11:56:36.645Z,3.10
2022-12-08T11:59:15.619Z,3.20
2022-12-08T12:01:42.839Z,3.30
2022-12-08T12:04:31.047Z,3.20
2022-12-08T12:06:57.634Z,3.10
2022-12-08T12:09:42.272Z,3.00
2022-12-08T12:12:21.817Z,2.90
2022-12-08T12:15:34.291Z,2.80
2022-12-08T12:18:27.006Z,2.70
2022-12-08T12:21:00.305Z,2.80
2022-12-08T12:23:40.298Z,2.70
2022-12-08T12:26:09.903Z,2.70
2022-12-08T12:28:53.169Z,2.80
2022-12-08T12:31:26.226Z,2.80
2022-12-08T12:33:56.978Z,2.80
2022-12-08T12:36:25.437Z,2.80
2022-12-08T12:39:01.200Z,2.80
2022-12-08T12:41:38.298Z,2.70
2022-12-08T12:44:14.301Z,2.70
2022-12-08T12:46:48.363Z,2.70
2022-12-08T12:49:39.830Z,2.80
2022-12-08T12:52:15.569Z,3.00
2022-12-08T12:54:43.668Z,3.10
2022-12-08T12:57:13.156Z,3.20
2022-12-08T12:59:47.003Z,3.20
2022-12-08T13:02:49.174Z,3.30
2022-12-08T13:05:26.326Z,3.30
2022-12-08T13:08:18.914Z,3.20
2022-12-08T13:11:18.259Z,3.30
2022-12-08T13:14:06.306Z,3.30
2022-12-08T13:16:39.497Z,3.30
2022-12-08T13:19:14.611Z,3.30
2022-12-08T13:21:41.602Z,3.30
2022-12-08T13:24:13.986Z,3.40
2022-12-08T13:26:45.451Z,3.40
2022-12-08T13:29:24.196Z,3.30
2022-12-08T13:31:57.853Z,3.40
2022-12-08T13:34:50.621Z,3.40
2022-12-08T13:37:34.348Z,3.30
2022-12-08T13:40:16.434Z,3.30
2022-12-08T13:43:38.807Z,3.30
2022-12-08T13:50:54.848Z,3.20
2022-12-08T13:57:33.340Z,3.20
2022-12-08T14:00:06.001Z,3.10
2022-12-08T14:02:40.875Z,3.10
2022-12-08T14:05:23.770Z,3.10
2022-12-08T14:07:57.293Z,3.00
2022-12-08T14:10:28.223Z,3.00
2022-12-08T14:13:01.364Z,3.00
2022-12-08T14:15:31.354Z,2.90
2022-12-08T14:17:59.309Z,2.80
2022-12-08T14:20:31.568Z,2.80
2022-12-08T14:22:59.659Z,2.80
2022-12-08T14:25:29.664Z,2.70
2022-12-08T14:28:01.344Z,2.70
2022-12-08T14:30:37.077Z,2.70
2022-12-08T14:33:05.024Z,2.70
2022-12-08T14:35:37.096Z,2.70
2022-12-08T14:38:06.635Z,2.60
2022-12-08T14:40:44.679Z,2.60
2022-12-08T14:43:13.503Z,2.60
2022-12-08T14:45:43.131Z,2.60
2022-12-08T14:48:31.598Z,2.60
2022-12-08T14:51:05.977Z,2.60
2022-12-08T14:53:59.355Z,2.50
2022-12-08T14:56:40.728Z,2.50
2022-12-08T14:59:18.844Z,2.50
2022-12-08T15:01:48.441Z,2.40
2022-12-08T15:04:15.167Z,2.40
2022-12-08T15:06:53.648Z,2.40
2022-12-08T15:10:11.128Z,2.40
2022-12-08T15:12:37.872Z,2.30
2022-12-08T15:15:10.464Z,2.20
2022-12-08T15:18:12.129Z,2.20
2022-12-08T15:20:51.803Z,2.00
2022-12-08T15:23:34.045Z,1.80
2022-12-08T15:26:00.775Z,1.70
2022-12-08T15:28:30.334Z,1.80
2022-12-08T15:30:57.843Z,1.70
2022-12-08T15:33:24.944Z,1.70
2022-12-08T15:35:51.782Z,1.70
2022-12-08T15:38:25.924Z,1.70
2022-12-08T15:40:53.772Z,1.80
2022-12-08T15:43:20.911Z,1.80
2022-12-08T15:45:58.487Z,1.90
2022-12-08T15:48:28.916Z,1.90
2022-12-08T15:50:56.531Z,1.90
2022-12-08T15:53:23.174Z,1.90
2022-12-08T15:56:18.911Z,1.90
2022-12-08T15:58:53.642Z,1.90
2022-12-08T16:01:21.694Z,1.90
2022-12-08T16:09:40.268Z,1.90
2022-12-08T16:13:13.346Z,1.90
2022-12-08T16:18:07.649Z,1.90
2022-12-08T16:23:41.815Z,1.90
2022-12-08T16:28:59.702Z,1.80
2022-12-08T16:31:26.443Z,1.80
2022-12-08T16:33:53.090Z,1.80
2022-12-08T16:36:19.698Z,1.80
2022-12-08T16:38:46.378Z,1.90
2022-12-08T16:41:35.663Z,1.90
2022-12-08T16:44:05.078Z,1.90
2022-12-08T16:46:32.015Z,1.90
2022-12-08T16:48:59.055Z,1.90
2022-12-08T16:51:27.243Z,2.00
2022-12-08T16:53:55.451Z,2.00
2022-12-08T16:56:26.255Z,2.00
2022-12-08T16:58:57.313Z,2.00
2022-12-08T17:01:24.137Z,2.10
2022-12-08T17:04:07.509Z,2.10
2022-12-08T17:06:37.622Z,2.10
2022-12-08T17:09:04.471Z,2.10
2022-12-08T17:11:37.496Z,2.10
2022-12-08T17:14:05.914Z,2.20
2022-12-08T17:16:32.708Z,2.10
2022-12-08T17:18:59.395Z,2.10
2022-12-08T17:21:26.050Z,2.10
2022-12-08T17:23:52.771Z,2.10
2022-12-08T17:26:19.431Z,2.10
2022-12-08T17:29:01.933Z,2.10
2022-12-08T17:31:31.090Z,2.10
2022-12-08T17:34:00.010Z,2.10
2022-12-08T17:36:26.760Z,2.10
2022-12-08T17:38:54.400Z,2.10
2022-12-08T17:41:21.067Z,2.10
2022-12-08T17:43:47.743Z,2.10
2022-12-08T17:46:19.416Z,2.10
2022-12-08T17:48:46.425Z,2.10
2022-12-08T17:51:13.093Z,2.10
2022-12-08T17:53:40.729Z,2.10
2022-12-08T17:56:15.788Z,2.10
2022-12-08T17:58:42.846Z,2.10
2022-12-08T18:01:10.586Z,2.00
2022-12-08T18:03:38.046Z,2.00
2022-12-08T18:06:09.628Z,2.00
2022-12-08T18:08:36.790Z,2.00
2022-12-08T18:11:04.318Z,2.00
2022-12-08T18:13:31.957Z,2.00
2022-12-08T18:15:58.680Z,2.00
2022-12-08T18:18:25.337Z,2.10
2022-12-08T18:20:52.154Z,2.10
2022-12-08T18:23:18.917Z,2.10
2022-12-08T18:25:45.772Z,2.10
2022-12-08T18:28:12.438Z,2.10
2022-12-08T18:30:40.277Z,2.10
2022-12-08T18:33:08.285Z,2.10
2022-12-08T18:35:35.254Z,2.10
2022-12-08T18:38:02.039Z,2.10
2022-12-08T18:40:29.069Z,2.10
2022-12-08T18:42:56.064Z,2.10
2022-12-08T18:45:23.047Z,2.10
2022-12-08T18:47:50.967Z,2.00
2022-12-08T18:50:18.282Z,2.00
2022-12-08T18:52:46.125Z,2.00
2022-12-08T18:55:13.344Z,2.00
2022-12-08T18:57:43.011Z,2.00
2022-12-08T19:00:13.604Z,1.90
2022-12-08T19:02:40.952Z,1.90
2022-12-08T19:05:09.218Z,1.90
2022-12-08T19:07:36.277Z,1.90
2022-12-08T19:10:04.175Z,1.90
2022-12-08T19:12:31.110Z,1.80
2022-12-08T19:14:58.134Z,1.90
2022-12-08T19:17:25.881Z,1.90
2022-12-08T19:19:52.613Z,1.80
2022-12-08T19:22:19.251Z,1.80
2022-12-08T19:24:46.177Z,1.80
2022-12-08T19:27:12.894Z,1.80
2022-12-08T19:29:39.808Z,1.70
2022-12-08T19:32:06.540Z,1.80
2022-12-08T19:34:33.341Z,1.70
2022-12-08T19:37:00.024Z,1.70
2022-12-08T19:39:45.315Z,1.70
2022-12-08T19:42:35.419Z,1.70
2022-12-08T19:45:13.258Z,1.70
2022-12-08T19:47:40.182Z,1.60
2022-12-08T19:50:37.538Z,1.60
2022-12-08T19:53:11.695Z,1.60
2022-12-08T19:55:39.548Z,1.60
2022-12-08T19:58:07.208Z,1.60
2022-12-08T20:00:35.686Z,1.60
2022-12-08T20:03:03.420Z,1.60
2022-12-08T20:05:31.838Z,1.60
2022-12-08T20:07:58.573Z,1.60
2022-12-08T20:10:35.641Z,1.60
2022-12-08T20:13:21.562Z,1.50
2022-12-08T20:15:48.477Z,1.50
2022-12-08T20:18:15.942Z,1.50
2022-12-08T20:20:43.774Z,1.50
2022-12-08T20:23:10.694Z,1.50
2022-12-08T20:25:42.239Z,1.50
2022-12-08T20:28:09.517Z,1.50
2022-12-08T20:30:39.036Z,1.50
2022-12-08T20:33:05.759Z,1.50
2022-12-08T20:35:32.447Z,1.50
2022-12-08T20:37:59.094Z,1.50
2022-12-08T20:40:25.758Z,1.50
2022-12-08T20:42:52.472Z,1.50
2022-12-08T20:45:19.220Z,1.50
